sensor_id;sensor_type;location;lat;lon;timestamp;temperature;humidity
58951;DHT22;44730;53.158;6.398;2023-01-31T00:03:36;3.20;99.90
58951;DHT22;44730;53.158;6.398;2023-01-31T00:06:16;4.60;99.90
58951;DHT22;44730;53.158;6.398;2023-01-31T00:08:43;3.20;99.90
58951;DHT22;44730;53.158;6.398;2023-01-31T00:11:10;3.20;99.90
58951;DHT22;44730;53.158;6.398;2023-01-31T00:13:36;4.20;99.90
58951;DHT22;44730;53.158;6.398;2023-01-31T00:16:02;4.40;99.90
58951;DHT22;44730;53.158;6.398;2023-01-31T00:18:28;3.20;99.90
58951;DHT22;44730;53.158;6.398;2023-01-31T00:20:54;4.80;99.90
58951;DHT22;44730;53.158;6.398;2023-01-31T00:23:19;3.10;99.90
58951;DHT22;44730;53.158;6.398;2023-01-31T00:25:45;4.50;99.90
58951;DHT22;44730;53.158;6.398;2023-01-31T00:28:11;4.50;99.90
58951;DHT22;44730;53.158;6.398;2023-01-31T00:30:37;4.20;99.90
58951;DHT22;44730;53.158;6.398;2023-01-31T00:33:02;3.40;99.90
58951;DHT22;44730;53.158;6.398;2023-01-31T00:35:28;2.90;99.90
58951;DHT22;44730;53.158;6.398;2023-01-31T00:37:54;2.90;99.90
58951;DHT22;44730;53.158;6.398;2023-01-31T00:40:19;4.50;99.90
58951;DHT22;44730;53.158;6.398;2023-01-31T00:42:45;4.40;99.90
58951;DHT22;44730;53.158;6.398;2023-01-31T00:45:11;4.00;99.90
58951;DHT22;44730;53.158;6.398;2023-01-31T00:47:37;2.80;99.90
58951;DHT22;44730;53.158;6.398;2023-01-31T00:50:04;4.50;99.90
58951;DHT22;44730;53.158;6.398;2023-01-31T00:52:30;2.70;99.90
58951;DHT22;44730;53.158;6.398;2023-01-31T00:54:56;4.40;99.90
58951;DHT22;44730;53.158;6.398;2023-01-31T00:57:21;4.40;99.90
58951;DHT22;44730;53.158;6.398;2023-01-31T00:59:47;3.70;99.90
58951;DHT22;44730;53.158;6.398;2023-01-31T01:02:13;4.40;99.90
58951;DHT22;44730;53.158;6.398;2023-01-31T01:04:38;4.30;99.90
58951;DHT22;44730;53.158;6.398;2023-01-31T01:07:04;3.70;99.90
58951;DHT22;44730;53.158;6.398;2023-01-31T01:09:30;2.60;99.90
58951;DHT22;44730;53.158;6.398;2023-01-31T01:11:56;2.70;99.90
58951;DHT22;44730;53.158;6.398;2023-01-31T01:14:21;2.70;99.90
58951;DHT22;44730;53.158;6.398;2023-01-31T01:16:47;4.10;99.90
58951;DHT22;44730;53.158;6.398;2023-01-31T01:19:16;4.50;99.90
58951;DHT22;44730;53.158;6.398;2023-01-31T01:21:42;4.40;99.90
58951;DHT22;44730;53.158;6.398;2023-01-31T01:24:15;4.40;99.90
58951;DHT22;44730;53.158;6.398;2023-01-31T01:26:41;4.70;99.90
58951;DHT22;44730;53.158;6.398;2023-01-31T01:29:08;3.50;99.90
58951;DHT22;44730;53.158;6.398;2023-01-31T01:31:35;4.30;99.90
58951;DHT22;44730;53.158;6.398;2023-01-31T01:34:05;2.70;99.90
58951;DHT22;44730;53.158;6.398;2023-01-31T01:36:33;4.30;99.90
58951;DHT22;44730;53.158;6.398;2023-01-31T01:38:59;4.60;99.90
58951;DHT22;44730;53.158;6.398;2023-01-31T01:41:25;4.60;99.90
58951;DHT22;44730;53.158;6.398;2023-01-31T01:43:57;4.60;99.90
58951;DHT22;44730;53.158;6.398;2023-01-31T01:46:36;2.80;99.90
58951;DHT22;44730;53.158;6.398;2023-01-31T01:49:30;4.30;99.90
58951;DHT22;44730;53.158;6.398;2023-01-31T01:51:59;2.90;99.90
58951;DHT22;44730;53.158;6.398;2023-01-31T01:54:34;4.40;99.90
58951;DHT22;44730;53.158;6.398;2023-01-31T01:57:03;3.70;99.90
58951;DHT22;44730;53.158;6.398;2023-01-31T01:59:39;3.00;99.90
58951;DHT22;44730;53.158;6.398;2023-01-31T02:02:06;3.00;99.90
58951;DHT22;44730;53.158;6.398;2023-01-31T02:04:35;4.40;99.90
58951;DHT22;44730;53.158;6.398;2023-01-31T02:07:02;4.70;99.90
58951;DHT22;44730;53.158;6.398;2023-01-31T02:09:33;3.10;99.90
58951;DHT22;44730;53.158;6.398;2023-01-31T02:12:00;3.10;99.90
58951;DHT22;44730;53.158;6.398;2023-01-31T02:14:26;4.90;99.90
58951;DHT22;44730;53.158;6.398;2023-01-31T02:16:51;3.70;99.90
58951;DHT22;44730;53.158;6.398;2023-01-31T02:19:34;4.40;99.90
58951;DHT22;44730;53.158;6.398;2023-01-31T02:25:02;3.30;99.90
58951;DHT22;44730;53.158;6.398;2023-01-31T02:38:54;3.30;99.90
58951;DHT22;44730;53.158;6.398;2023-01-31T02:49:46;5.30;99.90
58951;DHT22;44730;53.158;6.398;2023-01-31T02:52:30;5.10;99.90
58951;DHT22;44730;53.158;6.398;2023-01-31T02:55:21;3.50;99.90
58951;DHT22;44730;53.158;6.398;2023-01-31T02:58:08;3.40;99.90
58951;DHT22;44730;53.158;6.398;2023-01-31T03:00:39;5.00;99.90
58951;DHT22;44730;53.158;6.398;2023-01-31T03:03:07;4.50;99.90
58951;DHT22;44730;53.158;6.398;2023-01-31T03:05:37;3.40;99.90
58951;DHT22;44730;53.158;6.398;2023-01-31T03:08:04;4.50;99.90
58951;DHT22;44730;53.158;6.398;2023-01-31T03:11:01;3.50;99.90
58951;DHT22;44730;53.158;6.398;2023-01-31T03:16:13;3.60;99.90
58951;DHT22;44730;53.158;6.398;2023-01-31T03:19:34;3.90;99.90
58951;DHT22;44730;53.158;6.398;2023-01-31T03:22:08;3.70;99.90
58951;DHT22;44730;53.158;6.398;2023-01-31T03:24:34;4.00;99.90
58951;DHT22;44730;53.158;6.398;2023-01-31T03:27:01;4.50;99.90
58951;DHT22;44730;53.158;6.398;2023-01-31T03:29:28;3.80;99.90
58951;DHT22;44730;53.158;6.398;2023-01-31T03:32:04;3.80;99.90
58951;DHT22;44730;53.158;6.398;2023-01-31T03:34:31;3.90;99.90
58951;DHT22;44730;53.158;6.398;2023-01-31T03:39:40;3.90;99.90
58951;DHT22;44730;53.158;6.398;2023-01-31T03:42:16;4.00;99.90
58951;DHT22;44730;53.158;6.398;2023-01-31T03:45:17;4.10;99.90
58951;DHT22;44730;53.158;6.398;2023-01-31T03:47:48;4.20;99.90
58951;DHT22;44730;53.158;6.398;2023-01-31T03:50:38;4.20;99.90
58951;DHT22;44730;53.158;6.398;2023-01-31T03:58:42;4.30;99.90
58951;DHT22;44730;53.158;6.398;2023-01-31T04:01:10;4.40;99.90
58951;DHT22;44730;53.158;6.398;2023-01-31T04:03:43;4.40;99.90
58951;DHT22;44730;53.158;6.398;2023-01-31T04:06:10;5.70;99.90
58951;DHT22;44730;53.158;6.398;2023-01-31T04:08:36;5.30;99.90
58951;DHT22;44730;53.158;6.398;2023-01-31T04:11:08;5.20;99.90
58951;DHT22;44730;53.158;6.398;2023-01-31T04:13:34;4.60;99.90
58951;DHT22;44730;53.158;6.398;2023-01-31T04:16:00;5.40;99.90
58951;DHT22;44730;53.158;6.398;2023-01-31T04:18:26;5.70;99.90
58951;DHT22;44730;53.158;6.398;2023-01-31T04:20:52;4.70;99.90
58951;DHT22;44730;53.158;6.398;2023-01-31T04:23:18;4.90;99.90
58951;DHT22;44730;53.158;6.398;2023-01-31T04:25:44;4.80;99.90
58951;DHT22;44730;53.158;6.398;2023-01-31T04:28:10;5.10;99.90
58951;DHT22;44730;53.158;6.398;2023-01-31T04:30:36;6.00;99.90
58951;DHT22;44730;53.158;6.398;2023-01-31T04:33:02;5.60;99.90
58951;DHT22;44730;53.158;6.398;2023-01-31T04:35:28;5.00;99.90
58951;DHT22;44730;53.158;6.398;2023-01-31T04:37:54;5.70;99.90
58951;DHT22;44730;53.158;6.398;2023-01-31T04:40:20;5.10;99.90
58951;DHT22;44730;53.158;6.398;2023-01-31T04:42:45;6.10;99.90
58951;DHT22;44730;53.158;6.398;2023-01-31T04:45:11;5.40;99.90
58951;DHT22;44730;53.158;6.398;2023-01-31T04:47:37;5.90;99.90
58951;DHT22;44730;53.158;6.398;2023-01-31T04:50:03;5.70;99.90
58951;DHT22;44730;53.158;6.398;2023-01-31T04:52:29;5.10;99.90
58951;DHT22;44730;53.158;6.398;2023-01-31T04:54:55;5.90;99.90
58951;DHT22;44730;53.158;6.398;2023-01-31T04:57:21;5.40;99.90
58951;DHT22;44730;53.158;6.398;2023-01-31T04:59:46;5.20;99.90
58951;DHT22;44730;53.158;6.398;2023-01-31T05:02:14;5.10;99.90
58951;DHT22;44730;53.158;6.398;2023-01-31T05:04:40;6.30;99.90
58951;DHT22;44730;53.158;6.398;2023-01-31T05:07:06;6.50;99.90
58951;DHT22;44730;53.158;6.398;2023-01-31T05:09:31;6.60;99.90
58951;DHT22;44730;53.158;6.398;2023-01-31T05:11:57;5.10;99.90
58951;DHT22;44730;53.158;6.398;2023-01-31T05:14:23;5.10;99.90
58951;DHT22;44730;53.158;6.398;2023-01-31T05:16:48;5.30;99.90
58951;DHT22;44730;53.158;6.398;2023-01-31T05:19:14;5.20;99.90
58951;DHT22;44730;53.158;6.398;2023-01-31T05:21:40;5.80;99.90
58951;DHT22;44730;53.158;6.398;2023-01-31T05:24:27;5.80;99.90
58951;DHT22;44730;53.158;6.398;2023-01-31T05:26:53;5.20;99.90
58951;DHT22;44730;53.158;6.398;2023-01-31T05:29:27;6.20;99.90
58951;DHT22;44730;53.158;6.398;2023-01-31T05:31:55;5.20;99.90
58951;DHT22;44730;53.158;6.398;2023-01-31T05:34:22;5.20;99.90
58951;DHT22;44730;53.158;6.398;2023-01-31T05:36:53;5.70;99.90
58951;DHT22;44730;53.158;6.398;2023-01-31T05:39:19;5.20;99.90
58951;DHT22;44730;53.158;6.398;2023-01-31T05:41:45;6.50;99.90
58951;DHT22;44730;53.158;6.398;2023-01-31T05:44:10;6.70;99.90
58951;DHT22;44730;53.158;6.398;2023-01-31T05:46:36;6.00;99.90
58951;DHT22;44730;53.158;6.398;2023-01-31T05:49:03;5.80;99.90
58951;DHT22;44730;53.158;6.398;2023-01-31T05:51:29;5.30;99.90
58951;DHT22;44730;53.158;6.398;2023-01-31T05:53:55;5.30;99.90
58951;DHT22;44730;53.158;6.398;2023-01-31T05:56:21;5.30;99.90
58951;DHT22;44730;53.158;6.398;2023-01-31T05:58:47;5.90;99.90
58951;DHT22;44730;53.158;6.398;2023-01-31T06:01:19;5.70;99.90
58951;DHT22;44730;53.158;6.398;2023-01-31T06:03:45;5.70;99.90
58951;DHT22;44730;53.158;6.398;2023-01-31T06:06:12;5.50;99.90
58951;DHT22;44730;53.158;6.398;2023-01-31T06:08:38;5.70;99.90
58951;DHT22;44730;53.158;6.398;2023-01-31T06:11:07;6.10;99.90
58951;DHT22;44730;53.158;6.398;2023-01-31T06:13:40;5.30;99.90
58951;DHT22;44730;53.158;6.398;2023-01-31T06:16:08;6.60;99.90
58951;DHT22;44730;53.158;6.398;2023-01-31T06:18:33;6.70;99.90
58951;DHT22;44730;53.158;6.398;2023-01-31T06:20:59;5.60;99.90
58951;DHT22;44730;53.158;6.398;2023-01-31T06:23:25;6.20;99.90
58951;DHT22;44730;53.158;6.398;2023-01-31T06:25:52;5.70;99.90
58951;DHT22;44730;53.158;6.398;2023-01-31T06:28:18;6.10;99.90
58951;DHT22;44730;53.158;6.398;2023-01-31T06:30:44;5.40;99.90
58951;DHT22;44730;53.158;6.398;2023-01-31T06:33:10;5.40;99.90
58951;DHT22;44730;53.158;6.398;2023-01-31T06:35:37;6.50;99.90
58951;DHT22;44730;53.158;6.398;2023-01-31T06:38:04;6.80;99.90
58951;DHT22;44730;53.158;6.398;2023-01-31T06:40:30;6.70;99.90
58951;DHT22;44730;53.158;6.398;2023-01-31T06:42:56;6.70;99.90
58951;DHT22;44730;53.158;6.398;2023-01-31T06:45:23;6.20;99.90
58951;DHT22;44730;53.158;6.398;2023-01-31T06:47:48;6.00;99.90
58951;DHT22;44730;53.158;6.398;2023-01-31T06:50:14;6.80;99.90
58951;DHT22;44730;53.158;6.398;2023-01-31T06:52:40;5.50;99.90
58951;DHT22;44730;53.158;6.398;2023-01-31T06:55:06;5.80;99.90
58951;DHT22;44730;53.158;6.398;2023-01-31T06:57:32;5.50;99.90
58951;DHT22;44730;53.158;6.398;2023-01-31T06:59:58;6.60;99.90
58951;DHT22;44730;53.158;6.398;2023-01-31T07:02:24;6.10;99.90
58951;DHT22;44730;53.158;6.398;2023-01-31T07:04:50;5.50;99.90
58951;DHT22;44730;53.158;6.398;2023-01-31T07:07:16;7.20;99.90
58951;DHT22;44730;53.158;6.398;2023-01-31T07:09:42;6.60;99.90
58951;DHT22;44730;53.158;6.398;2023-01-31T07:12:08;5.70;99.90
58951;DHT22;44730;53.158;6.398;2023-01-31T07:14:34;5.50;99.90
58951;DHT22;44730;53.158;6.398;2023-01-31T07:16:59;5.80;99.90
58951;DHT22;44730;53.158;6.398;2023-01-31T07:19:25;6.00;99.90
58951;DHT22;44730;53.158;6.398;2023-01-31T07:21:51;5.60;99.90
58951;DHT22;44730;53.158;6.398;2023-01-31T07:24:17;6.30;99.90
58951;DHT22;44730;53.158;6.398;2023-01-31T07:26:43;5.60;99.90
58951;DHT22;44730;53.158;6.398;2023-01-31T07:29:08;6.90;99.90
58951;DHT22;44730;53.158;6.398;2023-01-31T07:31:34;5.60;99.90
58951;DHT22;44730;53.158;6.398;2023-01-31T07:34:00;5.60;99.90
58951;DHT22;44730;53.158;6.398;2023-01-31T07:36:27;5.70;99.90
58951;DHT22;44730;53.158;6.398;2023-01-31T07:38:53;5.70;99.90
58951;DHT22;44730;53.158;6.398;2023-01-31T07:41:20;5.70;99.90
58951;DHT22;44730;53.158;6.398;2023-01-31T07:43:46;6.60;99.90
58951;DHT22;44730;53.158;6.398;2023-01-31T07:46:12;7.00;99.90
58951;DHT22;44730;53.158;6.398;2023-01-31T07:48:37;5.80;99.90
58951;DHT22;44730;53.158;6.398;2023-01-31T07:51:04;5.80;99.90
58951;DHT22;44730;53.158;6.398;2023-01-31T07:53:34;5.70;99.90
58951;DHT22;44730;53.158;6.398;2023-01-31T07:56:14;5.80;99.90
58951;DHT22;44730;53.158;6.398;2023-01-31T07:58:41;6.00;99.90
58951;DHT22;44730;53.158;6.398;2023-01-31T08:01:14;5.80;99.90
58951;DHT22;44730;53.158;6.398;2023-01-31T08:03:58;6.00;99.90
58951;DHT22;44730;53.158;6.398;2023-01-31T08:06:24;5.80;99.90
58951;DHT22;44730;53.158;6.398;2023-01-31T08:08:51;7.20;99.90
58951;DHT22;44730;53.158;6.398;2023-01-31T08:11:17;7.00;99.90
58951;DHT22;44730;53.158;6.398;2023-01-31T08:13:43;6.80;99.90
58951;DHT22;44730;53.158;6.398;2023-01-31T08:16:09;5.90;99.90
58951;DHT22;44730;53.158;6.398;2023-01-31T08:18:36;5.90;99.90
58951;DHT22;44730;53.158;6.398;2023-01-31T08:21:05;7.30;99.90
58951;DHT22;44730;53.158;6.398;2023-01-31T08:23:32;6.00;99.90
58951;DHT22;44730;53.158;6.398;2023-01-31T08:26:15;6.20;99.90
58951;DHT22;44730;53.158;6.398;2023-01-31T08:28:43;6.00;99.90
58951;DHT22;44730;53.158;6.398;2023-01-31T08:31:17;6.00;99.90
58951;DHT22;44730;53.158;6.398;2023-01-31T08:33:43;6.00;99.90
58951;DHT22;44730;53.158;6.398;2023-01-31T08:36:17;6.30;99.90
58951;DHT22;44730;53.158;6.398;2023-01-31T08:38:44;6.10;99.90
58951;DHT22;44730;53.158;6.398;2023-01-31T08:41:10;6.10;99.90
58951;DHT22;44730;53.158;6.398;2023-01-31T08:43:36;6.90;99.90
58951;DHT22;44730;53.158;6.398;2023-01-31T08:46:03;6.30;99.90
58951;DHT22;44730;53.158;6.398;2023-01-31T08:48:36;6.20;99.90
58951;DHT22;44730;53.158;6.398;2023-01-31T08:51:04;7.70;99.90
58951;DHT22;44730;53.158;6.398;2023-01-31T08:53:31;6.40;99.90
58951;DHT22;44730;53.158;6.398;2023-01-31T08:56:00;7.00;99.90
58951;DHT22;44730;53.158;6.398;2023-01-31T08:58:27;6.30;99.90
58951;DHT22;44730;53.158;6.398;2023-01-31T09:00:53;7.40;99.90
58951;DHT22;44730;53.158;6.398;2023-01-31T09:03:18;6.30;99.90
58951;DHT22;44730;53.158;6.398;2023-01-31T09:05:44;6.30;99.90
58951;DHT22;44730;53.158;6.398;2023-01-31T09:08:11;7.40;99.90
58951;DHT22;44730;53.158;6.398;2023-01-31T09:10:37;6.90;99.90
58951;DHT22;44730;53.158;6.398;2023-01-31T09:13:05;6.70;99.90
58951;DHT22;44730;53.158;6.398;2023-01-31T09:15:31;6.30;99.90
58951;DHT22;44730;53.158;6.398;2023-01-31T09:17:57;7.00;99.90
58951;DHT22;44730;53.158;6.398;2023-01-31T09:20:22;6.40;99.90
58951;DHT22;44730;53.158;6.398;2023-01-31T09:22:48;6.40;99.90
58951;DHT22;44730;53.158;6.398;2023-01-31T09:25:14;6.50;99.90
58951;DHT22;44730;53.158;6.398;2023-01-31T09:27:39;6.50;99.90
58951;DHT22;44730;53.158;6.398;2023-01-31T09:30:06;6.50;99.90
58951;DHT22;44730;53.158;6.398;2023-01-31T09:32:32;6.50;99.90
58951;DHT22;44730;53.158;6.398;2023-01-31T09:34:58;7.20;99.90
58951;DHT22;44730;53.158;6.398;2023-01-31T09:37:24;6.60;99.90
58951;DHT22;44730;53.158;6.398;2023-01-31T09:39:50;7.90;99.90
58951;DHT22;44730;53.158;6.398;2023-01-31T09:42:36;7.80;99.90
58951;DHT22;44730;53.158;6.398;2023-01-31T09:45:13;6.60;99.90
58951;DHT22;44730;53.158;6.398;2023-01-31T09:47:46;7.50;99.90
58951;DHT22;44730;53.158;6.398;2023-01-31T09:52:44;6.50;99.90
58951;DHT22;44730;53.158;6.398;2023-01-31T09:55:18;7.20;99.90
58951;DHT22;44730;53.158;6.398;2023-01-31T09:58:15;6.50;99.90
58951;DHT22;44730;53.158;6.398;2023-01-31T10:00:49;6.60;99.90
58951;DHT22;44730;53.158;6.398;2023-01-31T10:06:24;6.60;99.90
58951;DHT22;44730;53.158;6.398;2023-01-31T10:11:43;6.60;99.90
58951;DHT22;44730;53.158;6.398;2023-01-31T10:16:50;6.60;99.90
58951;DHT22;44730;53.158;6.398;2023-01-31T10:19:30;7.80;99.90
58951;DHT22;44730;53.158;6.398;2023-01-31T10:22:03;6.70;99.90
58951;DHT22;44730;53.158;6.398;2023-01-31T10:24:47;6.50;99.90
58951;DHT22;44730;53.158;6.398;2023-01-31T10:27:39;5.50;99.90
58951;DHT22;44730;53.158;6.398;2023-01-31T10:30:17;6.60;99.90
58951;DHT22;44730;53.158;6.398;2023-01-31T10:32:45;6.50;99.90
58951;DHT22;44730;53.158;6.398;2023-01-31T10:35:32;5.90;99.90
58951;DHT22;44730;53.158;6.398;2023-01-31T10:38:16;6.50;99.90
58951;DHT22;44730;53.158;6.398;2023-01-31T10:40:47;6.50;99.90
58951;DHT22;44730;53.158;6.398;2023-01-31T10:43:26;6.60;99.90
58951;DHT22;44730;53.158;6.398;2023-01-31T10:46:06;7.00;99.90
58951;DHT22;44730;53.158;6.398;2023-01-31T10:48:33;7.90;99.90
58951;DHT22;44730;53.158;6.398;2023-01-31T10:54:32;6.90;99.90
58951;DHT22;44730;53.158;6.398;2023-01-31T10:57:02;6.70;99.90
58951;DHT22;44730;53.158;6.398;2023-01-31T10:59:38;6.80;99.90
58951;DHT22;44730;53.158;6.398;2023-01-31T11:02:23;6.80;99.90
58951;DHT22;44730;53.158;6.398;2023-01-31T11:04:52;7.00;99.90
58951;DHT22;44730;53.158;6.398;2023-01-31T11:07:21;6.80;99.90
58951;DHT22;44730;53.158;6.398;2023-01-31T11:09:52;6.90;99.90
58951;DHT22;44730;53.158;6.398;2023-01-31T11:12:20;7.60;99.90
58951;DHT22;44730;53.158;6.398;2023-01-31T11:15:03;6.80;99.90
58951;DHT22;44730;53.158;6.398;2023-01-31T11:17:32;7.10;99.90
58951;DHT22;44730;53.158;6.398;2023-01-31T11:20:02;6.90;99.90
58951;DHT22;44730;53.158;6.398;2023-01-31T11:22:33;6.30;99.90
58951;DHT22;44730;53.158;6.398;2023-01-31T11:25:04;6.20;99.90
58951;DHT22;44730;53.158;6.398;2023-01-31T11:27:37;6.90;99.90
58951;DHT22;44730;53.158;6.398;2023-01-31T11:30:05;7.60;99.90
58951;DHT22;44730;53.158;6.398;2023-01-31T11:32:34;5.70;99.90
58951;DHT22;44730;53.158;6.398;2023-01-31T11:35:06;6.80;99.90
58951;DHT22;44730;53.158;6.398;2023-01-31T11:37:56;6.90;99.90
58951;DHT22;44730;53.158;6.398;2023-01-31T11:42:54;7.00;99.90
58951;DHT22;44730;53.158;6.398;2023-01-31T11:45:25;7.10;99.90
58951;DHT22;44730;53.158;6.398;2023-01-31T11:47:54;7.10;99.90
58951;DHT22;44730;53.158;6.398;2023-01-31T11:50:36;7.10;99.90
58951;DHT22;44730;53.158;6.398;2023-01-31T11:53:18;5.80;99.90
58951;DHT22;44730;53.158;6.398;2023-01-31T11:55:45;7.10;99.90
58951;DHT22;44730;53.158;6.398;2023-01-31T11:58:22;7.20;99.90
58951;DHT22;44730;53.158;6.398;2023-01-31T12:00:56;7.20;99.90
58951;DHT22;44730;53.158;6.398;2023-01-31T12:03:26;7.10;99.90
58951;DHT22;44730;53.158;6.398;2023-01-31T12:06:04;7.30;99.90
58951;DHT22;44730;53.158;6.398;2023-01-31T12:08:34;7.30;99.90
58951;DHT22;44730;53.158;6.398;2023-01-31T12:13:48;7.50;99.90
58951;DHT22;44730;53.158;6.398;2023-01-31T12:16:20;8.90;99.90
58951;DHT22;44730;53.158;6.398;2023-01-31T12:27:37;7.90;99.90
58951;DHT22;44730;53.158;6.398;2023-01-31T12:57:31;8.80;99.90
58951;DHT22;44730;53.158;6.398;2023-01-31T13:00:28;8.40;99.90
58951;DHT22;44730;53.158;6.398;2023-01-31T13:06:14;8.40;99.90
58951;DHT22;44730;53.158;6.398;2023-01-31T13:08:51;8.30;99.90
58951;DHT22;44730;53.158;6.398;2023-01-31T13:11:22;8.30;99.90
58951;DHT22;44730;53.158;6.398;2023-01-31T13:14:01;8.30;99.90
58951;DHT22;44730;53.158;6.398;2023-01-31T13:16:28;8.30;99.90
58951;DHT22;44730;53.158;6.398;2023-01-31T13:18:59;8.30;99.90
58951;DHT22;44730;53.158;6.398;2023-01-31T13:21:29;8.30;99.90
58951;DHT22;44730;53.158;6.398;2023-01-31T13:24:17;8.30;99.90
58951;DHT22;44730;53.158;6.398;2023-01-31T16:06:21;7.20;99.90
58951;DHT22;44730;53.158;6.398;2023-01-31T16:08:56;7.10;99.90
58951;DHT22;44730;53.158;6.398;2023-01-31T16:11:23;7.00;99.90
58951;DHT22;44730;53.158;6.398;2023-01-31T16:13:51;7.00;99.90
58951;DHT22;44730;53.158;6.398;2023-01-31T16:16:17;7.00;99.90
58951;DHT22;44730;53.158;6.398;2023-01-31T16:18:56;7.60;99.90
58951;DHT22;44730;53.158;6.398;2023-01-31T16:21:33;6.90;99.90
58951;DHT22;44730;53.158;6.398;2023-01-31T16:24:14;6.70;99.90
58951;DHT22;44730;53.158;6.398;2023-01-31T16:26:56;6.60;99.90
58951;DHT22;44730;53.158;6.398;2023-01-31T16:29:45;6.60;99.90
58951;DHT22;44730;53.158;6.398;2023-01-31T16:32:21;6.90;99.90
58951;DHT22;44730;53.158;6.398;2023-01-31T16:35:21;6.40;99.90
58951;DHT22;44730;53.158;6.398;2023-01-31T16:38:22;6.30;99.90
58951;DHT22;44730;53.158;6.398;2023-01-31T16:40:48;6.30;99.90
58951;DHT22;44730;53.158;6.398;2023-01-31T16:43:26;6.30;99.90
58951;DHT22;44730;53.158;6.398;2023-01-31T16:46:20;6.30;99.90
58951;DHT22;44730;53.158;6.398;2023-01-31T16:49:05;6.30;99.90
58951;DHT22;44730;53.158;6.398;2023-01-31T16:51:39;6.30;99.90
58951;DHT22;44730;53.158;6.398;2023-01-31T16:54:23;6.30;99.90
58951;DHT22;44730;53.158;6.398;2023-01-31T17:02:08;6.30;99.90
58951;DHT22;44730;53.158;6.398;2023-01-31T17:04:38;6.70;99.90
58951;DHT22;44730;53.158;6.398;2023-01-31T17:07:06;6.70;99.90
58951;DHT22;44730;53.158;6.398;2023-01-31T17:09:33;6.20;99.90
58951;DHT22;44730;53.158;6.398;2023-01-31T17:12:00;6.90;99.90
58951;DHT22;44730;53.158;6.398;2023-01-31T17:14:25;7.20;99.90
58951;DHT22;44730;53.158;6.398;2023-01-31T17:16:52;6.40;99.90
58951;DHT22;44730;53.158;6.398;2023-01-31T17:19:18;6.10;99.90
58951;DHT22;44730;53.158;6.398;2023-01-31T17:21:44;6.00;99.90
58951;DHT22;44730;53.158;6.398;2023-01-31T17:24:18;6.20;99.90
58951;DHT22;44730;53.158;6.398;2023-01-31T17:26:47;6.00;99.90
58951;DHT22;44730;53.158;6.398;2023-01-31T17:29:12;5.90;99.90
58951;DHT22;44730;53.158;6.398;2023-01-31T17:31:39;6.20;99.90
58951;DHT22;44730;53.158;6.398;2023-01-31T17:34:14;5.90;99.90
58951;DHT22;44730;53.158;6.398;2023-01-31T17:36:40;5.80;99.90
58951;DHT22;44730;53.158;6.398;2023-01-31T17:39:06;5.80;99.90
58951;DHT22;44730;53.158;6.398;2023-01-31T17:41:32;6.30;99.90
58951;DHT22;44730;53.158;6.398;2023-01-31T17:43:59;6.60;99.90
58951;DHT22;44730;53.158;6.398;2023-01-31T17:46:27;5.80;99.90
58951;DHT22;44730;53.158;6.398;2023-01-31T17:48:55;6.40;99.90
58951;DHT22;44730;53.158;6.398;2023-01-31T17:51:21;5.80;99.90
58951;DHT22;44730;53.158;6.398;2023-01-31T17:53:47;5.80;99.90
58951;DHT22;44730;53.158;6.398;2023-01-31T17:56:13;5.80;99.90
58951;DHT22;44730;53.158;6.398;2023-01-31T17:58:38;5.80;99.90
58951;DHT22;44730;53.158;6.398;2023-01-31T18:01:08;6.60;99.90
58951;DHT22;44730;53.158;6.398;2023-01-31T18:03:34;6.50;99.90
58951;DHT22;44730;53.158;6.398;2023-01-31T18:06:04;6.10;99.90
58951;DHT22;44730;53.158;6.398;2023-01-31T18:08:30;5.60;99.90
58951;DHT22;44730;53.158;6.398;2023-01-31T18:11:12;5.60;99.90
58951;DHT22;44730;53.158;6.398;2023-01-31T18:13:39;5.60;99.90
58951;DHT22;44730;53.158;6.398;2023-01-31T18:16:07;5.60;99.90
58951;DHT22;44730;53.158;6.398;2023-01-31T18:18:35;5.60;99.90
58951;DHT22;44730;53.158;6.398;2023-01-31T18:21:01;5.50;99.90
58951;DHT22;44730;53.158;6.398;2023-01-31T18:23:30;5.50;99.90
58951;DHT22;44730;53.158;6.398;2023-01-31T18:25:56;6.00;99.90
58951;DHT22;44730;53.158;6.398;2023-01-31T18:28:21;5.50;99.90
58951;DHT22;44730;53.158;6.398;2023-01-31T18:30:47;6.00;99.90
58951;DHT22;44730;53.158;6.398;2023-01-31T18:33:13;6.30;99.90
58951;DHT22;44730;53.158;6.398;2023-01-31T18:35:39;6.90;99.90
58951;DHT22;44730;53.158;6.398;2023-01-31T18:38:04;5.50;99.90
58951;DHT22;44730;53.158;6.398;2023-01-31T18:40:31;6.90;99.90
58951;DHT22;44730;53.158;6.398;2023-01-31T18:42:57;5.50;99.90
58951;DHT22;44730;53.158;6.398;2023-01-31T18:45:23;5.50;99.90
58951;DHT22;44730;53.158;6.398;2023-01-31T18:47:49;5.50;99.90
58951;DHT22;44730;53.158;6.398;2023-01-31T18:50:16;5.50;99.90
58951;DHT22;44730;53.158;6.398;2023-01-31T18:52:42;5.50;99.90
58951;DHT22;44730;53.158;6.398;2023-01-31T18:55:09;6.80;99.90
58951;DHT22;44730;53.158;6.398;2023-01-31T18:57:35;5.50;99.90
58951;DHT22;44730;53.158;6.398;2023-01-31T19:00:02;5.50;99.90
58951;DHT22;44730;53.158;6.398;2023-01-31T19:02:28;5.50;99.90
58951;DHT22;44730;53.158;6.398;2023-01-31T19:04:54;5.50;99.90
58951;DHT22;44730;53.158;6.398;2023-01-31T19:07:19;5.50;99.90
58951;DHT22;44730;53.158;6.398;2023-01-31T19:09:45;5.50;99.90
58951;DHT22;44730;53.158;6.398;2023-01-31T19:12:11;6.20;99.90
58951;DHT22;44730;53.158;6.398;2023-01-31T19:14:36;5.50;99.90
58951;DHT22;44730;53.158;6.398;2023-01-31T19:17:02;6.10;99.90
58951;DHT22;44730;53.158;6.398;2023-01-31T19:19:28;6.20;99.90
58951;DHT22;44730;53.158;6.398;2023-01-31T19:21:53;6.10;99.90
58951;DHT22;44730;53.158;6.398;2023-01-31T19:24:20;5.70;99.90
58951;DHT22;44730;53.158;6.398;2023-01-31T19:26:46;5.40;99.90
58951;DHT22;44730;53.158;6.398;2023-01-31T19:29:13;5.40;99.90
58951;DHT22;44730;53.158;6.398;2023-01-31T19:31:40;6.60;99.90
58951;DHT22;44730;53.158;6.398;2023-01-31T19:34:06;5.40;99.90
58951;DHT22;44730;53.158;6.398;2023-01-31T19:36:34;5.60;99.90
58951;DHT22;44730;53.158;6.398;2023-01-31T19:39:02;5.30;99.90
58951;DHT22;44730;53.158;6.398;2023-01-31T19:41:29;5.30;99.90
58951;DHT22;44730;53.158;6.398;2023-01-31T19:43:56;5.30;99.90
58951;DHT22;44730;53.158;6.398;2023-01-31T19:46:25;6.30;99.90
58951;DHT22;44730;53.158;6.398;2023-01-31T19:48:51;5.90;99.90
58951;DHT22;44730;53.158;6.398;2023-01-31T19:51:19;5.90;99.90
58951;DHT22;44730;53.158;6.398;2023-01-31T19:53:47;5.30;99.90
58951;DHT22;44730;53.158;6.398;2023-01-31T19:56:14;5.40;99.90
58951;DHT22;44730;53.158;6.398;2023-01-31T19:58:40;5.90;99.90
58951;DHT22;44730;53.158;6.398;2023-01-31T20:01:11;5.60;99.90
58951;DHT22;44730;53.158;6.398;2023-01-31T20:03:37;5.30;99.90
58951;DHT22;44730;53.158;6.398;2023-01-31T20:06:09;6.40;99.90
58951;DHT22;44730;53.158;6.398;2023-01-31T20:08:35;5.40;99.90
58951;DHT22;44730;53.158;6.398;2023-01-31T20:11:02;5.30;99.90
58951;DHT22;44730;53.158;6.398;2023-01-31T20:13:29;5.30;99.90
58951;DHT22;44730;53.158;6.398;2023-01-31T20:16:05;5.30;99.90
58951;DHT22;44730;53.158;6.398;2023-01-31T20:18:32;5.30;99.90
58951;DHT22;44730;53.158;6.398;2023-01-31T20:20:58;5.70;99.90